CYULKMCD

Guest
Details From CYUL - Montreal Pierre E Trudeau Intl
To KMCD - Mackinac Island
Flight Number -
Tags Generated
Created
Modified
Stats Distance 457 nm / 846 km
Max Altitude 0 ft / 0 m
Waypoints 3
Social Downloads 0
Likes 0
Share VATSIM

Download

Looking for another format? Having issues loading an existing format? Contact us
Advertisement - Login to hide

Notes

Generated

Route

CYUL MABEH KMCD

ID Type Via Altitude Latitude Longitude Leg Dist Tot Dist Heading (true) Name
O CYUL APT - 0 ft / 0 m 45.46250˚ -73.76500˚ - 0 nm - -
MABEH FIX - 0 ft / 0 m 45.86278˚ -84.63119˚ 456 nm 456 nm 277° / 269° -
O KMCD APT - 0 ft / 0 m 45.86371˚ -84.64399˚ 0 nm 456 nm 276° / 276° MACKINAC ISLAND

Altitude Profile

Advertisement - Login to hide

Weather


0- 5 10 15 20 25 30 35+ Temperature / ° C

Clouds and Precipitation
Forecast for 2017-12-13 12:00 UTC. Updated 23 minutes ago

Ground ~20,000 ft ~40,000 ft Winds

CYUL

Details ICAO CYUL (YUL)
Name Montreal Pierre E Trudeau Intl
Region Canada
Timezone America/Montreal (UTC-5.0)
Stats Elevation 117 ft / 36 m (AMSL)
Location 45.467269° -73.744028°
Runways 3
Magnetic Variation 14.322° W

METAR

CYUL 131112Z 26011G16KT 3SM -SN DRSN FEW012 BKN015 OVC030 M10/M12 A2935 RMK SF1SC4SC3 SLP943

Decode

TAF

TAF CYUL 130838Z 1309/1406 26010KT 6SM -SN SCT015 OVC030 TEMPO 1309/1318 21/2SM -SN VV010 BECMG 1310/1312 26020G30KT FM131800 26020G30KT P6SM BKN030 FM132200 26015G25KT P6SM FEW030 RMK NXT FCST BY 131200Z

Decode

Departure Runways

ID Width Length Bearing (true) Bearing (mag) Surface Threshold Offset Overrun Length
06L 200 ft / 61 m 11,020 ft / 3,359 m 42.62° 56.94° Asphalt 0 ft / 0 m 0 ft / 0 m
06R 200 ft / 61 m 9,706 ft / 2,958 m 41.23° 55.55° Asphalt 0 ft / 0 m 0 ft / 0 m
10 200 ft / 61 m 6,831 ft / 2,082 m 87.45° 101.77° Asphalt 0 ft / 0 m 0 ft / 0 m
24L 200 ft / 61 m 9,706 ft / 2,958 m 221.25° 235.57° Asphalt 0 ft / 0 m 0 ft / 0 m
24R 200 ft / 61 m 11,020 ft / 3,359 m 222.64° 236.96° Asphalt 0 ft / 0 m 0 ft / 0 m
28 200 ft / 61 m 6,831 ft / 2,082 m 267.47° 281.79° Asphalt 0 ft / 0 m 0 ft / 0 m

KMCD

Details ICAO KMCD
Name MACKINAC ISLAND
Region United States
Timezone America/Detroit (UTC-5.0)
Stats Elevation 740 ft / 226 m (AMSL)
Location 45.864935° -84.637344°
Runways 1
Magnetic Variation 7.132° W

METAR

KMCD 131135Z AUTO 05010KT 7SM -SN OVC002 M13/M15 A2975 RMK AO2 T11261150

Decode

TAF

Not found

Destination Runways

ID Width Length Bearing (true) Bearing (mag) Surface Threshold Offset Overrun Length
08 75 ft / 23 m 3,492 ft / 1,065 m 75.21° 82.34° Asphalt 0 ft / 0 m 0 ft / 0 m
26 75 ft / 23 m 3,492 ft / 1,065 m 255.22° 262.35° Asphalt 0 ft / 0 m 0 ft / 0 m